Time;durP1;ratioP1;P1;durP2;ratioP2;P2;SDS_P1;SDS_P2;PMS_P1;PMS_P2;Temp;Humidity;BMP_temperature;BMP_pressure;BME280_temperature;BME280_humidity;BME280_pressure;Samples;Min_cycle;Max_cycle;Signal;HPM_P1;HPM_P2
2022/05/07 00:01:51;;;;;;;7.60;3.20;;;11.50;77.80;;;;;;5055143;28;20283;-59
2022/05/07 00:04:17;;;;;;;6.27;3.40;;;11.50;77.90;;;;;;5054929;28;20264;-58
2022/05/07 00:06:44;;;;;;;7.50;3.43;;;11.50;77.90;;;;;;5054834;28;20211;-58
2022/05/07 00:09:11;;;;;;;4.90;3.30;;;11.50;78.00;;;;;;5054527;28;20210;-57
2022/05/07 00:11:38;;;;;;;7.50;3.40;;;11.50;78.10;;;;;;5054824;28;20208;-58
2022/05/07 00:14:06;;;;;;;8.90;3.30;;;11.50;78.30;;;;;;5054804;28;20222;-59
2022/05/07 00:19:17;;;;;;;9.57;3.67;;;11.40;78.80;;;;;;5054574;28;20246;-58
2022/05/07 00:21:43;;;;;;;6.90;3.20;;;11.40;79.20;;;;;;5054547;28;20682;-57
2022/05/07 00:24:10;;;;;;;6.53;3.40;;;11.40;79.30;;;;;;5054484;28;20229;-59
2022/05/07 00:26:37;;;;;;;6.53;3.37;;;11.40;79.30;;;;;;5054495;28;20232;-59
2022/05/07 00:29:04;;;;;;;6.77;3.33;;;11.40;79.30;;;;;;5054591;28;20666;-59
2022/05/07 00:31:32;;;;;;;5.53;3.33;;;11.40;79.50;;;;;;5054398;28;20205;-58
2022/05/07 00:33:59;;;;;;;8.10;3.40;;;11.40;79.80;;;;;;5054174;28;20201;-58
2022/05/07 00:36:26;;;;;;;8.60;3.40;;;11.30;79.80;;;;;;5054363;28;20205;-59
2022/05/07 00:38:53;;;;;;;8.50;3.73;;;11.30;79.60;;;;;;5054454;28;20201;-58
2022/05/07 00:41:19;;;;;;;6.60;3.80;;;11.30;79.80;;;;;;5054289;28;20209;-58
2022/05/07 00:43:46;;;;;;;8.13;4.10;;;11.30;79.80;;;;;;5054355;28;20217;-58
2022/05/07 00:46:13;;;;;;;9.63;3.63;;;11.40;79.90;;;;;;5054041;28;20212;-58
2022/05/07 00:48:41;;;;;;;6.97;4.07;;;11.30;79.90;;;;;;5052810;28;20210;-58
2022/05/07 00:53:53;;;;;;;5.67;4.03;;;11.30;80.10;;;;;;5054121;28;20254;-59
2022/05/07 00:56:20;;;;;;;7.80;3.90;;;11.30;80.10;;;;;;5053590;28;20205;-58
2022/05/07 00:58:48;;;;;;;8.77;4.10;;;11.30;80.40;;;;;;5053807;28;20209;-59
2022/05/07 01:01:14;;;;;;;7.13;4.07;;;11.30;80.40;;;;;;5054011;28;20237;-58
2022/05/07 01:03:44;;;;;;;8.07;4.07;;;11.20;80.50;;;;;;5053537;28;20232;-59
2022/05/07 01:06:10;;;;;;;9.10;3.90;;;11.20;80.80;;;;;;5053530;28;20237;-59
2022/05/07 01:08:37;;;;;;;7.77;4.40;;;11.10;81.30;;;;;;5053585;28;20539;-57
2022/05/07 01:11:04;;;;;;;8.10;3.67;;;11.10;81.70;;;;;;5053787;28;20232;-59
2022/05/07 01:13:31;;;;;;;9.20;3.50;;;11.10;81.50;;;;;;5053505;28;20211;-58
2022/05/07 01:15:58;;;;;;;7.73;3.80;;;11.10;81.90;;;;;;5053519;28;20252;-59
2022/05/07 01:18:25;;;;;;;10.17;4.50;;;11.10;82.20;;;;;;5053558;28;20201;-59
2022/05/07 01:20:55;;;;;;;7.30;4.07;;;11.10;82.30;;;;;;5053266;28;20202;-58
2022/05/07 01:23:23;;;;;;;7.00;3.60;;;11.00;82.10;;;;;;5052913;28;20233;-59
2022/05/07 01:25:50;;;;;;;7.40;3.97;;;11.00;81.90;;;;;;5053378;28;20225;-58
2022/05/07 01:28:17;;;;;;;8.13;4.13;;;11.00;82.50;;;;;;5053330;28;20211;-58
2022/05/07 01:30:44;;;;;;;6.53;3.70;;;10.90;82.60;;;;;;5053392;28;20208;-58
2022/05/07 01:33:10;;;;;;;9.47;3.83;;;10.90;83.20;;;;;;5053267;28;20201;-59
2022/05/07 01:35:37;;;;;;;8.93;3.90;;;10.90;83.40;;;;;;5053398;28;20209;-58
2022/05/07 01:38:05;;;;;;;7.03;3.97;;;10.90;83.20;;;;;;5053654;28;20205;-59
2022/05/07 01:40:33;;;;;;;8.77;3.90;;;10.90;83.40;;;;;;5053086;28;20205;-58
2022/05/07 01:43:00;;;;;;;8.47;3.67;;;10.80;83.40;;;;;;5053159;28;20221;-59
2022/05/07 01:45:27;;;;;;;8.47;3.57;;;10.80;83.40;;;;;;5052940;28;20213;-58
2022/05/07 01:48:10;;;;;;;9.87;3.90;;;10.80;83.20;;;;;;5053035;28;20208;-59
2022/05/07 01:50:38;;;;;;;5.97;3.83;;;10.80;83.40;;;;;;5053026;28;20189;-59
2022/05/07 01:53:06;;;;;;;8.57;4.03;;;10.80;83.60;;;;;;5053139;28;20247;-58
2022/05/07 01:55:34;;;;;;;7.83;3.87;;;10.80;83.60;;;;;;5052893;28;20205;-60
2022/05/07 01:58:01;;;;;;;8.70;4.10;;;10.80;83.70;;;;;;5052619;28;20579;-59
2022/05/07 02:00:29;;;;;;;7.70;3.80;;;10.80;83.90;;;;;;5052525;28;20205;-59
2022/05/07 02:02:56;;;;;;;9.27;4.43;;;10.70;84.10;;;;;;5052487;28;20209;-58
2022/05/07 02:05:24;;;;;;;8.00;4.20;;;10.70;84.20;;;;;;5052128;28;20287;-59
2022/05/07 02:07:50;;;;;;;8.00;4.00;;;10.70;84.30;;;;;;5052685;28;20247;-58
2022/05/07 02:10:18;;;;;;;8.87;4.60;;;10.70;84.10;;;;;;5052481;28;20546;-58
2022/05/07 02:12:46;;;;;;;9.20;4.63;;;10.70;84.50;;;;;;5052490;28;20529;-58
2022/05/07 02:15:13;;;;;;;8.30;5.13;;;10.70;84.30;;;;;;5052202;28;20209;-59
2022/05/07 02:17:39;;;;;;;8.20;4.40;;;10.70;84.60;;;;;;5052504;28;20206;-58
2022/05/07 02:20:08;;;;;;;9.53;4.43;;;10.70;84.70;;;;;;5052187;28;20205;-58
2022/05/07 02:22:35;;;;;;;8.50;4.50;;;10.70;84.70;;;;;;5052422;28;20201;-59
2022/05/07 02:25:02;;;;;;;10.77;5.03;;;10.70;84.60;;;;;;5052180;28;20236;-58
2022/05/07 02:27:29;;;;;;;8.33;4.53;;;10.70;84.30;;;;;;5052162;28;20205;-59
2022/05/07 02:29:57;;;;;;;10.73;5.07;;;10.70;84.60;;;;;;5052115;28;20209;-58
2022/05/07 02:32:24;;;;;;;8.70;4.43;;;10.70;84.70;;;;;;5052205;28;20208;-59
2022/05/07 02:34:51;;;;;;;10.23;4.97;;;10.70;84.60;;;;;;5051890;28;20212;-58
2022/05/07 02:37:17;;;;;;;9.03;4.33;;;10.70;84.70;;;;;;5051759;28;20212;-58
2022/05/07 02:39:44;;;;;;;10.83;4.80;;;10.70;84.50;;;;;;5051746;28;20212;-58
2022/05/07 02:44:56;;;;;;;9.77;4.93;;;10.70;84.80;;;;;;5052079;28;20710;-60
2022/05/07 02:47:23;;;;;;;8.77;4.97;;;10.70;84.80;;;;;;5051642;28;20202;-58
2022/05/07 02:49:51;;;;;;;11.20;5.00;;;10.70;85.00;;;;;;5052087;28;20219;-58
2022/05/07 02:52:18;;;;;;;8.47;4.73;;;10.70;85.00;;;;;;5051652;28;20255;-58
2022/05/07 02:54:44;;;;;;;7.50;4.83;;;10.70;85.20;;;;;;5052100;28;20563;-59
2022/05/07 02:57:11;;;;;;;9.00;4.93;;;10.60;85.50;;;;;;5051855;28;20559;-59
2022/05/07 02:59:39;;;;;;;10.97;5.30;;;10.60;85.90;;;;;;5051963;28;20205;-59
2022/05/07 03:02:08;;;;;;;11.10;5.00;;;10.50;86.10;;;;;;5051458;28;20209;-59
2022/05/07 03:04:35;;;;;;;11.40;4.93;;;10.50;86.20;;;;;;5051679;28;20691;-59
2022/05/07 03:07:02;;;;;;;11.23;4.73;;;10.50;86.30;;;;;;5051478;28;20194;-58
2022/05/07 03:09:29;;;;;;;8.53;5.30;;;10.50;86.50;;;;;;5051790;28;20691;-58
2022/05/07 03:11:55;;;;;;;7.97;4.37;;;10.50;86.40;;;;;;5051275;28;20229;-58
2022/05/07 03:14:22;;;;;;;6.97;4.30;;;10.50;86.30;;;;;;5051864;28;20263;-57
2022/05/07 03:16:49;;;;;;;8.27;4.97;;;10.50;86.40;;;;;;5051757;28;20612;-59
2022/05/07 03:19:17;;;;;;;8.37;4.30;;;10.50;86.60;;;;;;5051571;28;20628;-59
2022/05/07 03:21:46;;;;;;;8.93;4.40;;;10.50;86.70;;;;;;5051732;28;20201;-58
2022/05/07 03:24:13;;;;;;;8.77;4.60;;;10.50;86.60;;;;;;5051403;28;20684;-59
2022/05/07 03:26:40;;;;;;;10.73;4.57;;;10.50;86.90;;;;;;5051652;28;20202;-58
2022/05/07 03:29:08;;;;;;;8.17;4.50;;;10.50;86.90;;;;;;5051221;28;20211;-59
2022/05/07 03:31:35;;;;;;;9.17;4.73;;;10.50;86.90;;;;;;5051363;28;20214;-57
2022/05/07 03:34:01;;;;;;;9.07;4.87;;;10.50;86.80;;;;;;5051589;28;20203;-58
2022/05/07 03:36:30;;;;;;;9.80;5.10;;;10.50;87.00;;;;;;5051371;28;20244;-57
2022/05/07 03:38:56;;;;;;;10.27;4.90;;;10.50;87.40;;;;;;5051440;28;20531;-58
2022/05/07 03:41:23;;;;;;;10.37;4.90;;;10.50;87.30;;;;;;5051554;28;20699;-57
2022/05/07 03:43:50;;;;;;;9.93;5.00;;;10.50;87.20;;;;;;5051359;28;20606;-59
2022/05/07 03:46:17;;;;;;;7.83;4.60;;;10.50;87.40;;;;;;5051465;28;20205;-59
2022/05/07 03:48:44;;;;;;;10.00;4.60;;;10.50;87.40;;;;;;5051084;28;20216;-58
2022/05/07 03:51:11;;;;;;;9.70;4.47;;;10.50;87.70;;;;;;5051634;28;20203;-59
2022/05/07 03:53:38;;;;;;;9.20;4.20;;;10.50;87.60;;;;;;5051469;28;20658;-59
2022/05/07 03:56:06;;;;;;;7.77;4.53;;;10.50;87.80;;;;;;5051183;28;20255;-57
2022/05/07 03:58:34;;;;;;;9.20;4.33;;;10.60;87.80;;;;;;5051052;28;20205;-59
2022/05/07 04:01:01;;;;;;;12.00;4.57;;;10.60;87.70;;;;;;5051178;28;20213;-58
2022/05/07 04:03:29;;;;;;;10.33;4.70;;;10.70;87.70;;;;;;5051275;28;20658;-58
2022/05/07 04:05:59;;;;;;;7.83;4.40;;;10.80;87.50;;;;;;5050904;28;20606;-59
2022/05/07 04:08:25;;;;;;;9.50;4.47;;;10.90;87.40;;;;;;5051259;28;20212;-59
2022/05/07 04:10:54;;;;;;;9.07;4.40;;;10.90;87.40;;;;;;5050811;28;20216;-58
2022/05/07 04:13:21;;;;;;;9.17;4.50;;;10.90;87.60;;;;;;5052273;28;20297;-58
2022/05/07 04:15:47;;;;;;;8.70;4.53;;;11.00;87.50;;;;;;5052221;28;20248;-59
2022/05/07 04:18:14;;;;;;;9.10;4.33;;;11.10;87.70;;;;;;5051184;28;20201;-59
2022/05/07 04:20:41;;;;;;;12.57;4.90;;;11.10;87.40;;;;;;5051168;28;20212;-59
2022/05/07 04:23:08;;;;;;;11.13;4.50;;;11.30;87.50;;;;;;5054110;28;20693;-58
2022/05/07 04:25:35;;;;;;;9.43;4.40;;;11.40;87.60;;;;;;5054292;28;20229;-59
2022/05/07 04:28:03;;;;;;;12.83;4.77;;;11.40;87.30;;;;;;5054543;28;20201;-60
2022/05/07 04:30:30;;;;;;;17.03;5.37;;;11.60;87.00;;;;;;5054581;28;20201;-60
2022/05/07 04:32:57;;;;;;;24.30;5.93;;;11.60;86.90;;;;;;5054314;28;20659;-61
2022/05/07 04:35:24;;;;;;;13.20;4.73;;;11.70;86.80;;;;;;5054464;28;20205;-59
2022/05/07 04:37:51;;;;;;;14.17;5.57;;;11.80;86.60;;;;;;5054584;28;20216;-59
2022/05/07 04:40:17;;;;;;;10.73;4.80;;;11.90;86.60;;;;;;5054401;28;20201;-60
2022/05/07 04:42:44;;;;;;;11.23;5.23;;;12.00;87.40;;;;;;5054272;28;20205;-59
2022/05/07 04:45:13;;;;;;;10.67;4.53;;;12.10;86.50;;;;;;5054465;28;20221;-59
2022/05/07 04:47:40;;;;;;;11.27;4.93;;;12.10;86.40;;;;;;5054089;28;20215;-59
2022/05/07 04:50:07;;;;;;;8.83;4.40;;;12.20;86.20;;;;;;5053940;28;20213;-63
2022/05/07 04:52:34;;;;;;;11.17;5.17;;;12.20;86.20;;;;;;5054448;28;20544;-60
2022/05/07 04:55:03;;;;;;;8.77;4.53;;;12.40;86.10;;;;;;5053855;28;20224;-60
2022/05/07 04:57:31;;;;;;;9.67;4.70;;;12.40;85.70;;;;;;5054229;28;20244;-60
2022/05/07 04:59:59;;;;;;;9.53;5.03;;;12.40;86.40;;;;;;5054445;28;20205;-59
2022/05/07 05:02:27;;;;;;;9.33;4.73;;;12.50;86.60;;;;;;5053683;28;20618;-59
2022/05/07 05:04:54;;;;;;;9.60;4.40;;;12.50;86.40;;;;;;5053251;28;20244;-58
2022/05/07 05:07:20;;;;;;;10.50;4.43;;;12.60;86.40;;;;;;5053855;28;20217;-60
2022/05/07 05:09:47;;;;;;;11.50;4.73;;;12.70;86.30;;;;;;5053397;28;20213;-58
2022/05/07 05:12:14;;;;;;;9.63;4.40;;;12.80;86.30;;;;;;5053942;28;20691;-60
2022/05/07 05:17:26;;;;;;;8.53;4.47;;;13.00;86.20;;;;;;5053433;28;20220;-59
2022/05/07 05:19:53;;;;;;;8.37;4.40;;;13.20;86.00;;;;;;5053435;28;20201;-59
2022/05/07 05:22:20;;;;;;;11.80;4.60;;;13.20;85.70;;;;;;5053435;28;20209;-59
2022/05/07 05:24:47;;;;;;;12.53;4.80;;;13.30;86.00;;;;;;5053274;28;20225;-59
2022/05/07 05:27:14;;;;;;;10.37;4.73;;;13.30;85.90;;;;;;5053584;28;20205;-58
2022/05/07 05:29:41;;;;;;;7.47;4.30;;;13.40;86.00;;;;;;5052964;28;20205;-59
2022/05/07 05:32:09;;;;;;;10.40;4.80;;;13.60;85.90;;;;;;5053439;28;20275;-60
2022/05/07 05:34:37;;;;;;;9.67;4.73;;;13.60;85.60;;;;;;5052776;28;20267;-59
2022/05/07 05:37:04;;;;;;;14.63;4.57;;;13.80;85.00;;;;;;5053335;28;20213;-59
2022/05/07 05:39:31;;;;;;;14.10;5.17;;;13.90;84.70;;;;;;5053236;28;20212;-59
2022/05/07 05:41:59;;;;;;;7.87;4.53;;;13.90;84.70;;;;;;5052996;28;20209;-59
2022/05/07 05:44:26;;;;;;;8.47;5.00;;;14.00;84.70;;;;;;5053027;28;20619;-58
2022/05/07 05:46:52;;;;;;;11.37;4.83;;;14.10;85.00;;;;;;5052732;28;20209;-59
2022/05/07 05:49:19;;;;;;;10.40;4.67;;;14.20;84.70;;;;;;5052703;28;20305;-58
2022/05/07 05:51:47;;;;;;;14.00;5.53;;;14.30;84.40;;;;;;5052502;28;20205;-59
2022/05/07 05:54:14;;;;;;;7.70;4.53;;;14.40;84.10;;;;;;5052920;28;20233;-59
2022/05/07 05:56:41;;;;;;;9.23;4.50;;;14.50;84.10;;;;;;5052713;28;20205;-59
2022/05/07 05:59:08;;;;;;;10.13;4.73;;;14.60;83.90;;;;;;5052555;28;20542;-58
2022/05/07 06:01:34;;;;;;;10.97;4.33;;;14.70;83.50;;;;;;5052373;28;20300;-58
2022/05/07 06:04:01;;;;;;;13.30;4.50;;;14.80;83.50;;;;;;5052633;28;20205;-59
2022/05/07 06:06:28;;;;;;;11.13;5.03;;;15.00;83.10;;;;;;5052159;28;20603;-59
2022/05/07 06:08:56;;;;;;;9.83;5.13;;;15.10;82.80;;;;;;5052424;28;20667;-58
2022/05/07 06:11:23;;;;;;;11.57;5.73;;;15.20;82.60;;;;;;5052600;28;20205;-59
2022/05/07 06:13:50;;;;;;;9.73;5.30;;;15.30;83.10;;;;;;5052453;28;20207;-58
2022/05/07 06:16:17;;;;;;;10.30;4.80;;;15.40;82.60;;;;;;5052483;28;20255;-59
2022/05/07 06:18:44;;;;;;;12.60;6.03;;;15.40;82.70;;;;;;5052401;28;20204;-58
2022/05/07 06:21:11;;;;;;;13.07;5.63;;;15.60;82.80;;;;;;5052346;28;20201;-58
2022/05/07 06:23:38;;;;;;;10.00;4.97;;;15.70;82.10;;;;;;5051967;28;20205;-60
2022/05/07 06:28:52;;;;;;;9.70;4.93;;;16.00;80.80;;;;;;5052106;28;20201;-58
2022/05/07 06:31:19;;;;;;;13.60;5.73;;;16.20;81.10;;;;;;5052205;28;20569;-59
2022/05/07 06:33:46;;;;;;;10.67;5.20;;;16.30;80.20;;;;;;5051996;28;20205;-59
2022/05/07 06:36:13;;;;;;;27.03;5.30;;;16.30;79.90;;;;;;5051856;28;20204;-59
2022/05/07 06:38:40;;;;;;;13.07;5.87;;;16.40;79.50;;;;;;5051679;28;20239;-60
2022/05/07 06:41:08;;;;;;;10.43;4.90;;;16.50;79.10;;;;;;5052174;28;20202;-60
2022/05/07 06:43:35;;;;;;;17.93;5.90;;;16.70;79.30;;;;;;5051632;28;20224;-59
2022/05/07 06:46:03;;;;;;;10.27;5.10;;;16.80;78.00;;;;;;5050885;28;20229;-58
2022/05/07 06:48:29;;;;;;;17.30;5.83;;;16.90;77.80;;;;;;5051543;28;20211;-60
2022/05/07 06:50:56;;;;;;;17.90;7.80;;;17.00;77.70;;;;;;5051995;28;20536;-59
2022/05/07 06:53:23;;;;;;;13.40;6.50;;;17.20;77.10;;;;;;5051959;28;20580;-59
2022/05/07 06:55:56;;;;;;;13.77;5.90;;;17.20;76.80;;;;;;5051702;28;20202;-59
2022/05/07 06:58:26;;;;;;;12.50;5.63;;;17.40;75.60;;;;;;5051817;28;20190;-59
2022/05/07 07:00:53;;;;;;;11.17;5.20;;;17.50;75.70;;;;;;5051797;28;20216;-58
2022/05/07 07:03:20;;;;;;;15.40;5.10;;;17.60;74.10;;;;;;5051491;28;20221;-59
2022/05/07 07:05:48;;;;;;;14.27;5.00;;;17.80;74.50;;;;;;5051232;28;20283;-59
2022/05/07 07:08:15;;;;;;;10.20;5.23;;;17.90;73.30;;;;;;5051674;28;20595;-60
2022/05/07 07:10:43;;;;;;;14.53;5.87;;;17.90;73.60;;;;;;5051266;28;20217;-59
2022/05/07 07:13:10;;;;;;;17.23;7.67;;;18.00;73.60;;;;;;5051736;28;20641;-59
2022/05/07 07:15:40;;;;;;;14.37;6.30;;;18.10;72.50;;;;;;5051470;28;20560;-60
2022/05/07 07:18:09;;;;;;;10.17;5.57;;;18.10;73.10;;;;;;5052164;28;20201;-59
2022/05/07 07:20:38;;;;;;;10.90;5.67;;;18.30;72.00;;;;;;5051452;28;20217;-58
2022/05/07 07:23:06;;;;;;;11.70;5.30;;;18.40;72.20;;;;;;5051575;28;20210;-59
2022/05/07 07:25:33;;;;;;;11.73;6.23;;;18.50;71.50;;;;;;5051344;28;20691;-58
2022/05/07 07:27:59;;;;;;;15.07;7.03;;;18.50;70.80;;;;;;5051511;28;20544;-60
2022/05/07 07:30:26;;;;;;;10.50;6.20;;;18.60;71.20;;;;;;5051301;28;20573;-59
2022/05/07 07:32:54;;;;;;;13.37;6.67;;;18.70;70.80;;;;;;5051664;28;20201;-59
2022/05/07 07:35:21;;;;;;;12.70;5.97;;;18.70;70.90;;;;;;5051377;28;20208;-59
2022/05/07 07:37:48;;;;;;;14.20;5.90;;;18.70;69.90;;;;;;5051604;28;20202;-60
2022/05/07 07:40:15;;;;;;;15.17;6.17;;;18.80;70.30;;;;;;5051403;28;20209;-59
2022/05/07 07:42:42;;;;;;;10.60;5.40;;;18.80;70.70;;;;;;5051759;28;20223;-60
2022/05/07 07:47:59;;;;;;;11.93;5.80;;;19.00;69.50;;;;;;5051269;28;20188;-60
2022/05/07 07:50:29;;;;;;;10.00;5.97;;;19.00;68.60;;;;;;5051022;28;20192;-60
2022/05/07 07:52:57;;;;;;;12.83;5.50;;;19.10;69.10;;;;;;5051917;28;20214;-60
2022/05/07 07:55:25;;;;;;;12.03;5.57;;;19.00;69.70;;;;;;5051195;28;20202;-60
2022/05/07 07:57:54;;;;;;;13.47;5.80;;;19.10;68.20;;;;;;5054007;28;20294;-60
2022/05/07 08:00:21;;;;;;;15.00;7.50;;;19.10;67.50;;;;;;5054874;28;20747;-59
2022/05/07 08:02:50;;;;;;;20.87;7.63;;;19.10;67.40;;;;;;5055293;28;20559;-59
2022/05/07 08:05:22;;;;;;;13.33;5.70;;;19.20;67.20;;;;;;5054851;28;20703;-61
2022/05/07 08:13:17;;;;;;;14.23;6.47;;;19.50;66.90;;;;;;5054578;28;20183;-60
2022/05/07 08:15:45;;;;;;;9.73;5.47;;;19.50;65.80;;;;;;5054985;28;20675;-62
2022/05/07 08:18:12;;;;;;;10.73;5.33;;;19.50;66.00;;;;;;5054431;28;20296;-59
2022/05/07 08:20:42;;;;;;;10.30;5.20;;;19.50;66.60;;;;;;5054556;28;20224;-61
2022/05/07 08:23:09;;;;;;;14.07;7.33;;;19.50;66.70;;;;;;5054826;28;20212;-60
2022/05/07 08:25:36;;;;;;;15.87;5.63;;;19.50;66.10;;;;;;5054411;28;20233;-59
2022/05/07 08:28:03;;;;;;;9.67;4.87;;;19.40;64.70;;;;;;5054725;28;20201;-59
2022/05/07 08:30:30;;;;;;;11.67;5.70;;;19.60;65.50;;;;;;5054525;28;20209;-59
2022/05/07 08:32:57;;;;;;;11.00;5.17;;;19.60;65.80;;;;;;5054554;28;20209;-59
2022/05/07 08:35:24;;;;;;;9.17;4.73;;;19.80;65.80;;;;;;5054525;28;20210;-61
2022/05/07 08:37:52;;;;;;;13.80;5.30;;;19.90;65.30;;;;;;5054476;28;20209;-58
2022/05/07 08:40:20;;;;;;;8.47;4.97;;;19.90;64.10;;;;;;5054438;28;20622;-60
2022/05/07 08:42:47;;;;;;;8.50;4.67;;;19.90;63.50;;;;;;5054261;28;20205;-62
2022/05/07 08:45:14;;;;;;;11.63;4.50;;;20.00;63.60;;;;;;5054199;28;20217;-60
2022/05/07 08:47:42;;;;;;;9.53;4.50;;;19.90;63.80;;;;;;5054319;28;20203;-61
2022/05/07 08:50:09;;;;;;;8.30;4.60;;;20.00;62.90;;;;;;5054250;28;20205;-59
2022/05/07 08:52:42;;;;;;;10.77;4.70;;;20.00;62.90;;;;;;5054174;28;20752;-59
2022/05/07 08:55:12;;;;;;;5.67;3.57;;;20.00;61.70;;;;;;5054371;28;20639;-60
2022/05/07 08:57:40;;;;;;;6.37;4.33;;;20.10;61.00;;;;;;5054488;28;20198;-61
2022/05/07 09:00:09;;;;;;;6.23;3.77;;;20.10;61.50;;;;;;5054182;28;20212;-62
2022/05/07 09:02:41;;;;;;;5.40;3.70;;;20.10;61.20;;;;;;5053702;28;20212;-62
2022/05/07 09:05:09;;;;;;;9.90;3.93;;;20.10;60.20;;;;;;5053408;28;20248;-60
2022/05/07 09:07:36;;;;;;;7.73;4.00;;;20.10;60.30;;;;;;5053552;28;20205;-61
2022/05/07 09:10:10;;;;;;;11.23;4.60;;;20.10;59.80;;;;;;5052936;28;20206;-59
2022/05/07 09:12:38;;;;;;;9.70;4.23;;;20.10;60.60;;;;;;5053981;28;20194;-59
2022/05/07 09:15:07;;;;;;;11.80;5.60;;;20.10;60.40;;;;;;5053684;28;20214;-59
2022/05/07 09:17:34;;;;;;;7.47;3.60;;;20.10;60.90;;;;;;5053452;28;20209;-59
2022/05/07 09:20:11;;;;;;;7.43;4.20;;;20.10;59.50;;;;;;5053781;28;20682;-62
2022/05/07 09:22:51;;;;;;;11.47;4.03;;;20.20;60.00;;;;;;5053389;28;20204;-60
2022/05/07 09:25:22;;;;;;;8.07;3.50;;;20.20;60.90;;;;;;5053274;28;20285;-61
2022/05/07 09:27:54;;;;;;;7.80;4.10;;;20.20;61.20;;;;;;5053341;28;20209;-60
2022/05/07 09:30:25;;;;;;;9.37;4.17;;;20.30;61.10;;;;;;5053516;28;20205;-60
2022/05/07 09:32:53;;;;;;;6.40;4.23;;;20.30;62.30;;;;;;5053414;28;20198;-60
2022/05/07 09:38:10;;;;;;;7.17;4.30;;;20.40;59.90;;;;;;5052918;28;20192;-60
2022/05/07 09:40:39;;;;;;;10.93;3.93;;;20.40;59.60;;;;;;5053250;28;20697;-60
2022/05/07 09:43:09;;;;;;;6.63;3.50;;;20.40;60.50;;;;;;5052829;28;20259;-59
2022/05/07 09:45:37;;;;;;;6.47;3.63;;;20.50;60.70;;;;;;5053415;28;20236;-60
2022/05/07 09:48:04;;;;;;;7.03;3.17;;;20.50;59.00;;;;;;5052755;28;20234;-58
2022/05/07 09:50:46;;;;;;;8.20;3.23;;;20.50;59.30;;;;;;5053201;28;20553;-61
2022/05/07 09:58:46;;;;;;;7.23;3.73;;;20.60;59.00;;;;;;5052797;28;20198;-61
2022/05/07 10:01:29;;;;;;;23.33;4.80;;;20.60;59.10;;;;;;5052774;28;20203;-60
2022/05/07 10:04:06;;;;;;;16.17;4.50;;;20.60;58.70;;;;;;5052773;28;20193;-60
2022/05/07 10:06:56;;;;;;;9.67;3.70;;;20.70;58.80;;;;;;5052497;28;20289;-59
2022/05/07 10:09:35;;;;;;;8.00;3.67;;;20.80;59.20;;;;;;5052662;28;20198;-61
2022/05/07 10:12:02;;;;;;;5.17;3.37;;;20.90;58.90;;;;;;5052792;28;20555;-58
2022/05/07 10:14:32;;;;;;;10.50;4.00;;;21.00;59.40;;;;;;5053049;28;20214;-59
2022/05/07 10:17:00;;;;;;;8.17;3.70;;;21.10;58.50;;;;;;5052561;28;20199;-60
2022/05/07 10:19:39;;;;;;;8.47;4.00;;;21.20;58.00;;;;;;5052089;28;20220;-60
2022/05/07 10:22:21;;;;;;;41.07;5.83;;;21.30;58.90;;;;;;5052276;28;20295;-59
2022/05/07 10:24:48;;;;;;;7.87;4.23;;;21.40;58.60;;;;;;5052433;28;20233;-60
2022/05/07 10:27:23;;;;;;;11.20;4.37;;;21.40;57.80;;;;;;5051942;28;20217;-59
2022/05/07 10:29:51;;;;;;;10.37;3.93;;;21.50;58.30;;;;;;5052385;28;20193;-60
2022/05/07 10:32:21;;;;;;;8.30;4.90;;;21.60;58.10;;;;;;5052175;28;20205;-59
2022/05/07 10:34:52;;;;;;;8.43;4.30;;;21.60;57.80;;;;;;5052588;28;20717;-60
2022/05/07 10:37:19;;;;;;;15.57;5.90;;;21.70;57.30;;;;;;5052217;28;20725;-60
2022/05/07 10:39:52;;;;;;;8.47;4.17;;;21.70;57.40;;;;;;5052363;28;20205;-59
2022/05/07 10:42:21;;;;;;;7.37;3.97;;;21.70;57.30;;;;;;5052184;28;20186;-60
2022/05/07 10:44:48;;;;;;;8.20;3.93;;;21.80;57.80;;;;;;5051747;28;20553;-61
2022/05/07 10:47:19;;;;;;;6.70;3.90;;;21.80;56.60;;;;;;5051676;28;20229;-60
2022/05/07 10:49:56;;;;;;;12.47;6.77;;;21.70;57.40;;;;;;5051888;28;20189;-60
2022/05/07 10:52:34;;;;;;;8.43;4.83;;;21.80;58.10;;;;;;5052069;28;20207;-61
2022/05/07 10:55:06;;;;;;;8.73;4.13;;;21.70;56.90;;;;;;5051772;28;20193;-61
2022/05/07 10:57:42;;;;;;;6.97;3.90;;;21.80;57.40;;;;;;5052364;28;20197;-61
2022/05/07 11:00:17;;;;;;;9.47;4.10;;;21.80;57.80;;;;;;5051526;28;20189;-62
2022/05/07 11:02:46;;;;;;;6.83;3.90;;;21.80;56.90;;;;;;5051861;28;20212;-62
2022/05/07 11:05:13;;;;;;;8.13;3.80;;;21.80;56.90;;;;;;5051134;28;20235;-61
2022/05/07 11:07:40;;;;;;;5.87;3.67;;;21.80;56.90;;;;;;5051691;28;20225;-59
2022/05/07 11:10:08;;;;;;;10.47;4.40;;;21.80;56.90;;;;;;5051697;28;20267;-62
2022/05/07 11:12:36;;;;;;;10.13;4.83;;;21.90;56.30;;;;;;5051503;28;20205;-59
2022/05/07 11:15:04;;;;;;;15.97;7.07;;;21.90;56.60;;;;;;5051377;28;20258;-60
2022/05/07 11:17:33;;;;;;;14.03;6.13;;;21.90;57.10;;;;;;5051782;28;20208;-59
2022/05/07 11:20:04;;;;;;;7.43;4.10;;;22.00;57.70;;;;;;5051454;28;20263;-60
2022/05/07 11:22:31;;;;;;;10.63;4.30;;;22.10;57.60;;;;;;5051780;28;20200;-59
2022/05/07 11:25:00;;;;;;;10.43;4.40;;;22.20;57.50;;;;;;5051144;28;20241;-61
2022/05/07 11:27:32;;;;;;;9.70;4.20;;;22.10;57.20;;;;;;5051606;28;20229;-58
2022/05/07 11:29:59;;;;;;;7.60;4.47;;;22.10;57.50;;;;;;5051249;28;20197;-61
2022/05/07 11:32:36;;;;;;;8.90;4.17;;;22.00;57.10;;;;;;5053539;28;20209;-60
2022/05/07 11:35:06;;;;;;;6.23;3.40;;;22.00;56.50;;;;;;5055635;28;20249;-60
2022/05/07 11:37:40;;;;;;;13.57;4.20;;;21.90;56.10;;;;;;5055588;28;20666;-63
2022/05/07 11:40:08;;;;;;;11.37;4.27;;;21.90;56.90;;;;;;5055534;28;20636;-60
2022/05/07 11:42:37;;;;;;;6.77;3.93;;;21.90;57.10;;;;;;5055433;28;20654;-60
2022/05/07 11:45:29;;;;;;;11.10;4.40;;;21.90;56.50;;;;;;5055450;28;20562;-61
2022/05/07 11:47:58;;;;;;;20.90;5.07;;;21.80;56.60;;;;;;5055642;28;20251;-61
2022/05/07 11:50:29;;;;;;;10.60;4.60;;;21.70;57.20;;;;;;5055451;28;20590;-60
2022/05/07 11:52:56;;;;;;;6.50;3.97;;;21.60;56.90;;;;;;5055285;28;20189;-61
2022/05/07 11:55:28;;;;;;;7.77;3.80;;;21.60;57.70;;;;;;5055154;28;20205;-61
2022/05/07 11:57:56;;;;;;;9.00;4.00;;;21.60;57.40;;;;;;5055152;28;20201;-62
2022/05/07 12:00:25;;;;;;;7.67;4.07;;;21.60;57.80;;;;;;5054807;28;20331;-63
2022/05/07 12:02:56;;;;;;;10.40;4.63;;;21.40;56.40;;;;;;5055020;28;20212;-61
2022/05/07 12:05:26;;;;;;;7.27;4.00;;;21.30;56.90;;;;;;5054906;28;20244;-60
2022/05/07 12:07:54;;;;;;;10.60;4.23;;;21.20;57.40;;;;;;5054510;28;20236;-60
2022/05/07 12:10:24;;;;;;;7.80;4.17;;;21.20;57.80;;;;;;5054929;28;20205;-59
2022/05/07 12:12:50;;;;;;;7.03;4.70;;;21.10;57.70;;;;;;5055056;28;20205;-60
2022/05/07 12:17:51;;;;;;;8.13;4.60;;;21.10;56.70;;;;;;5054497;28;20205;-59
2022/05/07 12:18:05;;;;;;;14.17;3.90;;;21.00;57.10;;;;;;5054333;28;20181;-59
2022/05/07 12:20:33;;;;;;;9.33;4.20;;;21.00;58.00;;;;;;5054971;28;20294;-59
2022/05/07 12:31:13;;;;;;;12.70;5.07;;;20.90;57.90;;;;;;5054463;28;20626;-60
2022/05/07 12:33:40;;;;;;;6.30;3.93;;;20.90;58.10;;;;;;5054587;28;20207;-58
2022/05/07 12:36:08;;;;;;;9.13;4.13;;;20.90;58.20;;;;;;5054216;28;20206;-59
2022/05/07 12:38:35;;;;;;;9.10;3.80;;;21.00;58.70;;;;;;5054110;28;20209;-60
2022/05/07 12:41:02;;;;;;;11.03;4.40;;;21.00;57.50;;;;;;5054325;28;20701;-59
2022/05/07 12:43:29;;;;;;;7.07;3.93;;;21.00;57.90;;;;;;5054345;28;20582;-61
2022/05/07 12:45:56;;;;;;;8.93;4.10;;;21.10;58.40;;;;;;5053917;28;20213;-60
2022/05/07 12:48:22;;;;;;;8.60;4.20;;;21.10;57.80;;;;;;5054210;28;20683;-62
2022/05/07 12:50:49;;;;;;;7.60;3.90;;;21.00;58.10;;;;;;5054028;28;20647;-60
2022/05/07 12:53:18;;;;;;;6.80;4.00;;;21.10;58.70;;;;;;5054213;28;20210;-60
2022/05/07 12:55:45;;;;;;;6.03;3.87;;;21.00;58.00;;;;;;5054199;28;20206;-59
2022/05/07 12:58:12;;;;;;;10.47;4.40;;;21.00;58.00;;;;;;5054276;28;20229;-60
2022/05/07 13:00:40;;;;;;;9.37;5.40;;;21.10;59.40;;;;;;5053916;28;20217;-60
2022/05/07 13:03:07;;;;;;;8.70;4.50;;;21.10;58.30;;;;;;5053878;28;20287;-60
2022/05/07 13:05:35;;;;;;;7.10;4.20;;;21.20;58.40;;;;;;5053603;28;20237;-60
2022/05/07 13:08:03;;;;;;;11.43;4.33;;;21.30;58.30;;;;;;5054000;28;20233;-61
2022/05/07 13:10:32;;;;;;;8.93;4.80;;;21.40;58.00;;;;;;5053586;28;20682;-60
2022/05/07 13:13:00;;;;;;;10.97;4.70;;;21.40;57.80;;;;;;5053389;28;20267;-61
2022/05/07 13:15:28;;;;;;;7.00;4.00;;;21.40;57.90;;;;;;5053610;28;20201;-60
2022/05/07 13:17:55;;;;;;;8.53;4.10;;;21.40;57.70;;;;;;5053717;28;20670;-60
2022/05/07 13:20:22;;;;;;;9.70;4.23;;;21.40;57.60;;;;;;5053508;28;20559;-59
2022/05/07 13:22:49;;;;;;;10.73;4.73;;;21.50;57.40;;;;;;5053268;28;20205;-60
2022/05/07 13:25:16;;;;;;;6.70;4.50;;;21.60;57.60;;;;;;5053427;28;20236;-59
2022/05/07 13:27:45;;;;;;;11.97;4.53;;;21.70;57.70;;;;;;5053138;28;20225;-61